Terminal Aerodrome Forecast
Issued by NWS

Home | Current Version | Previous Version | Text Only | Print | Product List | Glossary On
Versions: 1 2 3 4 5 6 7 8 9 10 11 12 13 14 15 16
000
FTUS46 KPDT 281100
TAFALW
TAF
KALW 281132Z 2812/2912 23015G25KT P6SM VCSH BKN050 OVC060
     FM281300 23019G27KT P6SM BKN050
     FM281600 23021G29KT P6SM SCT050
     FM282100 23014G22KT P6SM FEW050
     FM290300 17007KT P6SM SCT250
     FM290600 13006KT P6SM SCT250=

USA.gov is the U.S. government's official web portal to all federal, state and local government web resources and services.